createdAt,value
2023-04-20T00:01:36.161Z,6.70
2023-04-20T00:04:03.779Z,9.10
2023-04-20T00:06:32.983Z,6.90
2023-04-20T00:09:01.789Z,5.90
2023-04-20T00:11:29.302Z,5.50
2023-04-20T00:13:56.783Z,7.10
2023-04-20T00:16:24.236Z,9.30
2023-04-20T00:18:52.067Z,13.00
2023-04-20T00:21:23.955Z,8.20
2023-04-20T00:23:52.093Z,6.40
2023-04-20T00:26:21.345Z,6.70
2023-04-20T00:28:51.975Z,6.90
2023-04-20T00:31:20.692Z,6.70
2023-04-20T00:33:49.014Z,6.30
2023-04-20T00:36:17.737Z,6.40
2023-04-20T00:38:47.744Z,6.80
2023-04-20T00:41:15.163Z,10.40
2023-04-20T00:44:02.025Z,7.50
2023-04-20T00:46:30.770Z,6.60
2023-04-20T00:49:01.698Z,5.60
2023-04-20T00:51:31.761Z,5.90
2023-04-20T00:54:01.351Z,5.80
2023-04-20T00:56:29.121Z,6.60
2023-04-20T00:59:02.189Z,6.20
2023-04-20T01:01:36.523Z,6.90
2023-04-20T01:04:04.675Z,7.50
2023-04-20T01:06:35.072Z,7.00
2023-04-20T01:09:03.068Z,6.20
2023-04-20T01:11:30.606Z,7.20
2023-04-20T01:13:58.207Z,9.20
2023-04-20T01:16:25.759Z,6.50
2023-04-20T01:18:53.884Z,7.00
2023-04-20T01:21:22.516Z,6.80
2023-04-20T01:23:50.770Z,6.80
2023-04-20T01:26:23.326Z,7.80
2023-04-20T01:28:51.269Z,6.70
2023-04-20T01:31:21.429Z,6.80
2023-04-20T01:33:49.596Z,6.20
2023-04-20T01:36:17.126Z,6.60
2023-04-20T01:38:44.606Z,7.40
2023-04-20T01:41:12.409Z,6.50
2023-04-20T01:43:40.799Z,7.00
2023-04-20T01:46:09.696Z,6.90
2023-04-20T01:48:37.371Z,7.00
2023-04-20T01:51:06.276Z,6.80
2023-04-20T01:53:33.694Z,6.60
2023-04-20T01:56:01.219Z,6.90
2023-04-20T01:58:29.195Z,7.40
2023-04-20T02:00:56.772Z,6.80
2023-04-20T02:03:24.393Z,6.60
2023-04-20T02:05:51.936Z,7.40
2023-04-20T02:08:20.957Z,6.50
2023-04-20T02:10:48.393Z,6.60
2023-04-20T02:13:15.998Z,6.10
2023-04-20T02:15:43.539Z,6.30
2023-04-20T02:18:11.109Z,5.90
2023-04-20T02:20:40.141Z,6.50
2023-04-20T02:23:07.861Z,6.20
2023-04-20T02:25:35.684Z,6.30
2023-04-20T02:28:03.362Z,6.20
2023-04-20T02:30:30.952Z,6.60
2023-04-20T02:32:59.298Z,6.80
2023-04-20T02:35:26.810Z,6.50
2023-04-20T02:37:54.489Z,6.40
2023-04-20T02:40:22.151Z,6.50
2023-04-20T02:42:49.604Z,6.20
2023-04-20T02:45:17.218Z,6.70
2023-04-20T02:47:44.771Z,7.00
2023-04-20T02:50:12.656Z,7.10
2023-04-20T02:52:40.461Z,8.00
2023-04-20T02:55:08.342Z,9.00
2023-04-20T02:57:36.342Z,8.00
2023-04-20T03:00:04.234Z,7.30
2023-04-20T03:02:32.144Z,6.40
2023-04-20T03:04:59.785Z,6.50
2023-04-20T03:07:27.217Z,6.80
2023-04-20T03:09:54.666Z,6.00
2023-04-20T03:12:22.376Z,7.10
2023-04-20T03:14:50.018Z,6.90
2023-04-20T03:17:18.623Z,7.20
2023-04-20T03:19:46.419Z,6.60
2023-04-20T03:22:13.928Z,6.60
2023-04-20T03:24:41.374Z,6.20
2023-04-20T03:27:08.886Z,6.70
2023-04-20T03:29:36.365Z,7.10
2023-04-20T03:32:03.899Z,7.20
2023-04-20T03:34:31.893Z,6.80
2023-04-20T03:36:59.308Z,19.00
2023-04-20T03:39:26.825Z,7.90
2023-04-20T03:41:54.383Z,6.50
2023-04-20T03:44:21.811Z,6.10
2023-04-20T03:46:49.467Z,15.50
2023-04-20T03:49:17.351Z,8.10
2023-04-20T03:51:45.100Z,7.40
2023-04-20T03:54:12.511Z,6.70
2023-04-20T03:56:39.983Z,11.90
2023-04-20T03:59:07.466Z,8.50
2023-04-20T04:01:37.434Z,6.30
2023-04-20T04:04:05.405Z,6.90
2023-04-20T04:06:33.312Z,6.50
2023-04-20T04:09:00.753Z,6.50
2023-04-20T04:11:30.088Z,6.40
2023-04-20T04:13:59.185Z,6.70
2023-04-20T04:16:26.680Z,6.70
2023-04-20T04:18:54.238Z,7.70
2023-04-20T04:21:21.754Z,6.70
2023-04-20T04:23:49.581Z,7.30
2023-04-20T04:26:18.380Z,6.80
2023-04-20T04:28:45.880Z,6.70
2023-04-20T04:31:13.459Z,6.20
2023-04-20T04:33:40.957Z,12.40
2023-04-20T04:36:08.669Z,5.80
2023-04-20T04:38:36.119Z,6.80
2023-04-20T04:41:03.817Z,7.70
2023-04-20T04:43:31.323Z,7.60
2023-04-20T04:45:58.924Z,6.10
2023-04-20T04:48:26.433Z,6.20
2023-04-20T04:50:53.970Z,6.10
2023-04-20T04:53:21.573Z,6.20
2023-04-20T04:55:49.190Z,6.70
2023-04-20T04:58:17.703Z,6.00
2023-04-20T05:00:45.268Z,6.20
2023-04-20T05:03:12.750Z,6.90
2023-04-20T05:05:40.396Z,6.00
2023-04-20T05:08:07.824Z,6.50
2023-04-20T05:10:35.763Z,6.80
2023-04-20T05:13:03.265Z,7.30
2023-04-20T05:15:30.760Z,6.10
2023-04-20T05:18:00.028Z,5.50
2023-04-20T05:20:27.671Z,6.00
2023-04-20T05:23:03.977Z,5.60
2023-04-20T05:25:32.864Z,6.40
2023-04-20T05:28:01.663Z,6.10
2023-04-20T05:30:29.221Z,5.70
2023-04-20T05:32:56.936Z,6.30
2023-04-20T05:35:24.529Z,5.90
2023-04-20T05:37:52.181Z,6.30
2023-04-20T05:40:19.863Z,5.90
2023-04-20T05:42:47.518Z,6.20
2023-04-20T05:45:19.122Z,5.60
2023-04-20T05:48:02.889Z,6.20
2023-04-20T05:50:31.073Z,5.90
2023-04-20T05:52:58.594Z,5.60
2023-04-20T05:55:27.664Z,6.10
2023-04-20T05:57:57.396Z,5.50
2023-04-20T06:00:33.488Z,6.30
2023-04-20T06:03:01.170Z,5.70
2023-04-20T06:05:29.252Z,5.20
2023-04-20T06:07:56.898Z,5.30
2023-04-20T06:10:34.703Z,5.60
2023-04-20T06:13:11.726Z,16.40
2023-04-20T06:15:40.350Z,6.70
2023-04-20T06:18:09.299Z,6.10
2023-04-20T06:20:39.700Z,5.30
2023-04-20T06:23:08.942Z,5.20
2023-04-20T06:25:36.755Z,5.60
2023-04-20T06:28:05.777Z,6.00
2023-04-20T06:30:36.437Z,5.80
2023-04-20T06:33:05.857Z,5.80
2023-04-20T06:35:33.758Z,4.90
2023-04-20T06:38:02.641Z,5.30
2023-04-20T06:40:30.415Z,4.90
2023-04-20T06:42:58.041Z,4.70
2023-04-20T06:45:28.772Z,5.20
2023-04-20T06:47:56.577Z,5.00
2023-04-20T06:50:35.707Z,6.20
2023-04-20T06:53:16.129Z,5.50
2023-04-20T06:55:45.007Z,4.80
2023-04-20T06:58:18.141Z,4.90
2023-04-20T07:00:56.418Z,5.10
2023-04-20T07:03:41.758Z,5.70
2023-04-20T07:06:11.665Z,4.60
2023-04-20T07:08:40.109Z,5.50
2023-04-20T07:11:08.046Z,5.10
2023-04-20T07:13:35.828Z,5.20
2023-04-20T07:16:03.630Z,4.90
2023-04-20T07:18:33.980Z,4.80
2023-04-20T07:21:02.799Z,4.60
2023-04-20T07:23:31.259Z,4.80
2023-04-20T07:25:59.485Z,4.40
2023-04-20T07:28:27.175Z,4.90
2023-04-20T07:30:54.859Z,4.30
2023-04-20T07:33:24.108Z,5.60
2023-04-20T07:35:52.286Z,7.80
2023-04-20T07:38:19.736Z,5.00
2023-04-20T07:40:47.193Z,4.70
2023-04-20T07:43:15.090Z,4.50
2023-04-20T07:45:42.570Z,4.20
2023-04-20T07:48:12.211Z,4.30
2023-04-20T07:50:41.174Z,3.70
2023-04-20T07:53:08.690Z,4.20
2023-04-20T07:55:36.734Z,4.30
2023-04-20T07:58:04.293Z,4.50
2023-04-20T08:00:31.886Z,6.00
2023-04-20T08:03:01.091Z,6.80
2023-04-20T08:05:29.580Z,6.00
2023-04-20T08:07:58.870Z,5.10
2023-04-20T08:10:26.533Z,4.70
2023-04-20T08:12:54.081Z,6.30
2023-04-20T08:15:21.638Z,4.40
2023-04-20T08:17:49.161Z,4.20
2023-04-20T08:20:19.420Z,4.00
2023-04-20T08:22:47.568Z,6.60
2023-04-20T08:25:16.292Z,3.80
2023-04-20T08:27:44.646Z,4.10
2023-04-20T08:30:12.828Z,4.00
2023-04-20T08:32:41.106Z,4.20
2023-04-20T08:35:09.348Z,4.30
2023-04-20T08:37:38.643Z,4.30
2023-04-20T08:40:06.949Z,4.30
2023-04-20T08:42:35.816Z,4.90
2023-04-20T08:45:03.721Z,5.30
2023-04-20T08:47:37.181Z,5.40
2023-04-20T08:50:05.463Z,5.90
2023-04-20T08:52:35.707Z,5.70
2023-04-20T08:55:03.562Z,4.70
2023-04-20T08:57:31.101Z,5.00
2023-04-20T08:59:58.704Z,4.90
2023-04-20T09:02:26.257Z,4.50
2023-04-20T09:05:05.264Z,4.40
2023-04-20T09:07:33.109Z,4.20
2023-04-20T09:10:01.209Z,3.60
2023-04-20T09:12:29.045Z,4.20
2023-04-20T09:14:56.702Z,4.00
2023-04-20T09:17:33.090Z,3.80
2023-04-20T09:20:01.074Z,4.40
2023-04-20T09:22:45.623Z,5.10
2023-04-20T09:25:17.817Z,4.40
2023-04-20T09:28:01.977Z,3.80
2023-04-20T09:30:48.913Z,4.40
2023-04-20T09:33:19.289Z,3.80
2023-04-20T09:35:47.210Z,4.30
2023-04-20T09:38:18.104Z,4.20
2023-04-20T09:40:45.845Z,4.30
2023-04-20T09:43:18.972Z,4.70
2023-04-20T09:45:46.704Z,4.90
2023-04-20T09:48:19.201Z,4.30
2023-04-20T09:50:51.079Z,3.00
2023-04-20T09:53:20.001Z,4.00
2023-04-20T09:55:50.068Z,3.10
2023-04-20T09:58:20.593Z,3.00
2023-04-20T10:00:49.210Z,3.40
2023-04-20T10:03:19.387Z,3.30
2023-04-20T10:05:47.464Z,3.40
2023-04-20T10:08:15.408Z,3.30
2023-04-20T10:10:48.857Z,3.60
2023-04-20T10:13:19.873Z,3.90
2023-04-20T10:15:47.494Z,3.20
2023-04-20T10:18:20.894Z,3.30
2023-04-20T10:20:49.732Z,3.60
2023-04-20T10:23:19.839Z,3.70
2023-04-20T10:26:03.812Z,3.20
2023-04-20T10:28:42.128Z,3.50
2023-04-20T10:31:15.777Z,3.10
2023-04-20T10:34:00.734Z,3.30
2023-04-20T10:36:31.900Z,3.20
2023-04-20T10:39:01.677Z,3.20
2023-04-20T10:41:29.352Z,2.60
2023-04-20T10:44:07.774Z,2.90
2023-04-20T10:46:36.713Z,2.60
2023-04-20T10:49:04.418Z,2.90
2023-04-20T10:51:34.512Z,2.50
2023-04-20T10:54:08.461Z,2.60
2023-04-20T10:56:44.953Z,3.10
2023-04-20T10:59:24.874Z,2.60
2023-04-20T11:01:54.087Z,7.90
2023-04-20T11:04:37.700Z,3.40
2023-04-20T11:07:10.312Z,2.60
2023-04-20T11:09:40.575Z,3.20
2023-04-20T11:12:11.940Z,2.70
2023-04-20T11:14:54.582Z,3.90
2023-04-20T11:17:39.512Z,2.30
2023-04-20T11:20:13.949Z,2.50
2023-04-20T11:22:43.970Z,2.50
2023-04-20T11:25:12.904Z,4.10
2023-04-20T11:27:44.843Z,2.90
2023-04-20T11:30:12.823Z,2.60
2023-04-20T11:32:40.638Z,2.50
2023-04-20T11:35:11.323Z,3.00
2023-04-20T11:37:51.800Z,3.20
2023-04-20T11:40:20.370Z,2.60
2023-04-20T11:42:47.904Z,2.50
2023-04-20T11:45:16.206Z,15.00
2023-04-20T11:47:45.957Z,13.10
2023-04-20T11:50:16.329Z,5.20
2023-04-20T11:52:44.338Z,3.20
2023-04-20T11:55:15.219Z,2.80
2023-04-20T11:57:43.388Z,3.00
2023-04-20T12:00:13.822Z,3.40
2023-04-20T12:02:41.766Z,3.60
2023-04-20T12:05:09.941Z,2.60
2023-04-20T12:07:38.152Z,2.90
2023-04-20T12:10:08.497Z,3.60
2023-04-20T12:12:38.826Z,3.60
2023-04-20T12:15:07.743Z,4.30
2023-04-20T12:17:35.940Z,14.20
2023-04-20T12:20:08.805Z,4.30
2023-04-20T12:22:56.050Z,3.20
2023-04-20T12:25:26.240Z,2.90
2023-04-20T12:28:08.054Z,3.40
2023-04-20T12:30:38.954Z,4.40
2023-04-20T12:33:06.955Z,3.10
2023-04-20T12:35:34.694Z,3.80
2023-04-20T12:38:02.341Z,4.20
2023-04-20T12:40:29.884Z,3.40
2023-04-20T12:42:57.480Z,3.70
2023-04-20T12:45:25.024Z,4.20
2023-04-20T12:47:55.416Z,3.30
2023-04-20T12:50:29.875Z,3.90
2023-04-20T12:53:06.047Z,2.70
2023-04-20T12:55:33.560Z,3.10
2023-04-20T12:58:01.096Z,3.40
2023-04-20T13:00:28.595Z,4.10
2023-04-20T13:02:56.315Z,4.20
2023-04-20T13:05:23.990Z,3.80
2023-04-20T13:07:51.862Z,3.10
2023-04-20T13:10:19.325Z,4.70
2023-04-20T13:12:46.809Z,3.90
2023-04-20T13:15:14.651Z,3.80
2023-04-20T13:17:42.952Z,3.80
2023-04-20T13:20:13.872Z,3.50
2023-04-20T13:22:50.681Z,3.30
2023-04-20T13:25:22.249Z,3.60
2023-04-20T13:27:49.727Z,3.80
2023-04-20T13:30:17.218Z,3.30
2023-04-20T13:32:44.800Z,3.00
2023-04-20T13:35:14.480Z,3.20
2023-04-20T13:37:42.146Z,3.20
2023-04-20T13:40:10.892Z,2.90
2023-04-20T13:42:38.492Z,5.50
2023-04-20T13:45:06.876Z,3.20
2023-04-20T13:47:34.680Z,2.90
2023-04-20T13:50:03.569Z,3.30
2023-04-20T13:52:31.649Z,9.40
2023-04-20T13:54:59.147Z,3.70
2023-04-20T13:57:26.667Z,7.10
2023-04-20T13:59:54.280Z,11.70
2023-04-20T14:02:21.859Z,4.60
2023-04-20T14:04:49.659Z,3.70
2023-04-20T14:07:17.295Z,5.50
2023-04-20T14:09:45.198Z,12.30
2023-04-20T14:12:13.752Z,29.60
2023-04-20T14:14:41.318Z,10.50
2023-04-20T14:17:08.903Z,17.40
2023-04-20T14:19:36.330Z,11.90
2023-04-20T14:22:03.872Z,7.70
2023-04-20T14:24:31.334Z,13.40
2023-04-20T14:26:59.822Z,5.00
2023-04-20T14:29:27.795Z,4.10
2023-04-20T14:31:56.818Z,3.70
2023-04-20T14:34:24.562Z,3.80
2023-04-20T14:36:52.056Z,3.30
2023-04-20T14:39:23.470Z,3.40
2023-04-20T14:41:51.314Z,3.30
2023-04-20T14:44:18.996Z,3.90
2023-04-20T14:46:46.933Z,3.40
2023-04-20T14:49:14.839Z,3.90
2023-04-20T14:51:44.792Z,3.80
2023-04-20T14:54:12.273Z,3.80
2023-04-20T14:56:39.866Z,3.00
2023-04-20T14:59:07.429Z,3.20
2023-04-20T15:01:35.054Z,4.60
2023-04-20T15:04:03.337Z,3.90
2023-04-20T15:06:32.081Z,3.50
2023-04-20T15:09:02.944Z,4.60
2023-04-20T15:11:30.605Z,5.40
2023-04-20T15:13:58.154Z,15.20
2023-04-20T15:16:25.714Z,12.00
2023-04-20T15:18:54.586Z,85.10
2023-04-20T15:21:22.871Z,292.50
2023-04-20T15:23:50.581Z,219.40
2023-04-20T15:26:18.290Z,44.50
2023-04-20T15:28:47.092Z,29.90
2023-04-20T15:31:18.643Z,551.40
2023-04-20T15:33:48.009Z,460.90
2023-04-20T15:36:19.561Z,187.90
2023-04-20T15:38:47.093Z,51.20
2023-04-20T15:41:16.344Z,21.50
2023-04-20T15:43:44.245Z,8.60
2023-04-20T15:46:11.889Z,5.80
2023-04-20T15:48:39.400Z,5.60
2023-04-20T15:51:07.211Z,8.30
2023-04-20T15:53:35.257Z,6.50
2023-04-20T15:56:02.771Z,5.40
2023-04-20T15:58:30.248Z,6.10
2023-04-20T16:00:57.940Z,6.10
2023-04-20T16:03:25.993Z,8.10
2023-04-20T16:05:54.003Z,85.50
2023-04-20T16:08:21.513Z,90.60
2023-04-20T16:10:48.980Z,221.90
2023-04-20T16:13:17.516Z,197.90
2023-04-20T16:15:45.100Z,170.10
2023-04-20T16:18:12.644Z,69.80
2023-04-20T16:20:41.441Z,29.70
2023-04-20T16:23:09.480Z,23.00
2023-04-20T16:25:38.687Z,22.30
2023-04-20T16:28:06.217Z,21.40
2023-04-20T16:30:34.241Z,14.70
2023-04-20T16:33:02.210Z,7.80
2023-04-20T16:35:29.859Z,5.60
2023-04-20T16:37:57.594Z,8.00
2023-04-20T16:40:28.565Z,8.30
2023-04-20T16:42:56.102Z,9.20
2023-04-20T16:45:23.574Z,12.60
2023-04-20T16:47:51.454Z,11.00
2023-04-20T16:50:20.311Z,16.70
2023-04-20T16:52:48.336Z,18.90
2023-04-20T16:55:15.938Z,18.40
2023-04-20T16:57:43.414Z,15.00
2023-04-20T17:00:13.268Z,17.20
2023-04-20T17:02:40.955Z,24.30
2023-04-20T17:05:13.660Z,17.70
2023-04-20T17:07:41.151Z,13.10
2023-04-20T17:10:09.287Z,11.60
2023-04-20T17:12:36.757Z,9.40
2023-04-20T17:15:04.654Z,10.30
2023-04-20T17:17:33.059Z,10.60
2023-04-20T17:20:02.365Z,11.40
2023-04-20T17:22:30.041Z,11.20
2023-04-20T17:24:57.579Z,11.30
2023-04-20T17:27:25.252Z,10.90
2023-04-20T17:29:52.749Z,7.80
2023-04-20T17:32:20.234Z,9.40
2023-04-20T17:34:51.755Z,8.20
2023-04-20T17:37:20.087Z,8.50
2023-04-20T17:39:47.634Z,8.20
2023-04-20T17:42:15.313Z,7.90
2023-04-20T17:44:42.830Z,9.10
2023-04-20T17:47:10.468Z,7.10
2023-04-20T17:49:39.498Z,6.80
2023-04-20T17:52:09.138Z,9.90
2023-04-20T17:54:36.600Z,12.30
2023-04-20T17:57:04.234Z,10.50
2023-04-20T17:59:31.760Z,7.50
2023-04-20T18:01:59.402Z,10.20
2023-04-20T18:04:27.361Z,7.70
2023-04-20T18:06:55.458Z,6.60
2023-04-20T18:09:22.964Z,7.70
2023-04-20T18:11:50.629Z,6.90
2023-04-20T18:14:18.259Z,7.20
2023-04-20T18:16:45.992Z,7.00
2023-04-20T18:19:13.473Z,6.50
2023-04-20T18:21:41.050Z,5.90
2023-04-20T18:24:08.529Z,5.40
2023-04-20T18:26:37.063Z,5.10
2023-04-20T18:29:05.352Z,5.70
2023-04-20T18:31:33.103Z,5.30
2023-04-20T18:34:00.626Z,5.80
2023-04-20T18:36:29.692Z,5.30
2023-04-20T18:38:57.321Z,5.70
2023-04-20T18:41:25.882Z,5.80
2023-04-20T18:43:54.406Z,5.90
2023-04-20T18:46:22.167Z,6.20
2023-04-20T18:48:49.674Z,7.00
2023-04-20T18:51:17.457Z,7.20
2023-04-20T18:53:44.968Z,7.00
2023-04-20T18:56:12.511Z,7.40
2023-04-20T18:58:40.062Z,6.90
2023-04-20T19:01:07.620Z,7.60
2023-04-20T19:03:35.735Z,7.30
2023-04-20T19:06:03.522Z,7.00
2023-04-20T19:08:33.847Z,7.10
2023-04-20T19:11:01.509Z,7.00
2023-04-20T19:13:28.957Z,7.30
2023-04-20T19:15:59.685Z,7.30
2023-04-20T19:18:27.264Z,7.10
2023-04-20T19:20:54.781Z,7.10
2023-04-20T19:23:22.270Z,7.30
2023-04-20T19:25:49.872Z,6.50
2023-04-20T19:28:17.471Z,6.90
2023-04-20T19:30:45.212Z,6.70
2023-04-20T19:33:12.768Z,7.10
2023-04-20T19:35:42.060Z,7.20
2023-04-20T19:38:09.599Z,6.90
2023-04-20T19:40:37.255Z,7.50
2023-04-20T19:43:04.705Z,7.10
2023-04-20T19:45:32.257Z,6.70
2023-04-20T19:47:59.775Z,6.90
2023-04-20T19:50:27.347Z,7.00
2023-04-20T19:52:55.494Z,7.90
2023-04-20T19:55:23.061Z,8.10
2023-04-20T19:57:51.712Z,7.00
2023-04-20T20:00:19.270Z,6.60
2023-04-20T20:02:46.897Z,6.90
2023-04-20T20:05:14.573Z,7.90
2023-04-20T20:07:42.466Z,7.50
2023-04-20T20:10:10.478Z,9.00
2023-04-20T20:12:38.092Z,7.90
2023-04-20T20:15:06.167Z,8.60
2023-04-20T20:17:33.757Z,7.90
2023-04-20T20:20:02.122Z,6.20
2023-04-20T20:22:29.598Z,6.90
2023-04-20T20:24:57.212Z,8.00
2023-04-20T20:27:25.643Z,8.30
2023-04-20T20:29:53.161Z,7.60
2023-04-20T20:32:22.656Z,8.50
2023-04-20T20:34:53.040Z,6.50
2023-04-20T20:37:21.151Z,10.30
2023-04-20T20:39:48.648Z,8.90
2023-04-20T20:42:16.142Z,9.30
2023-04-20T20:44:43.956Z,11.80
2023-04-20T20:47:11.506Z,14.00
2023-04-20T20:49:38.958Z,7.60
2023-04-20T20:52:07.214Z,7.80
2023-04-20T20:54:34.751Z,9.30
2023-04-20T20:57:02.878Z,9.30
2023-04-20T20:59:30.378Z,12.50
2023-04-20T21:01:57.832Z,10.00
2023-04-20T21:04:26.130Z,10.80
2023-04-20T21:06:53.608Z,7.50
2023-04-20T21:09:21.419Z,8.50
2023-04-20T21:11:49.075Z,7.10
2023-04-20T21:14:16.576Z,9.60
2023-04-20T21:16:44.171Z,18.00
2023-04-20T21:19:11.789Z,10.10
2023-04-20T21:21:39.383Z,8.80
2023-04-20T21:24:07.117Z,8.90
2023-04-20T21:26:35.982Z,7.20
2023-04-20T21:29:04.195Z,11.90
2023-04-20T21:31:32.934Z,12.80
2023-04-20T21:34:00.941Z,15.90
2023-04-20T21:36:28.489Z,12.70
2023-04-20T21:38:56.016Z,13.60
2023-04-20T21:41:23.600Z,11.40
2023-04-20T21:43:52.734Z,12.60
2023-04-20T21:46:20.453Z,11.00
2023-04-20T21:48:48.034Z,11.30
2023-04-20T21:51:16.730Z,9.10
2023-04-20T21:53:45.515Z,11.10
2023-04-20T21:56:14.766Z,11.50
2023-04-20T21:58:42.410Z,9.50
2023-04-20T22:01:10.125Z,7.00
2023-04-20T22:03:38.233Z,7.70
2023-04-20T22:06:07.035Z,9.40
2023-04-20T22:08:34.505Z,11.90
2023-04-20T22:11:01.984Z,12.10
2023-04-20T22:13:29.472Z,9.70
2023-04-20T22:15:57.037Z,8.80
2023-04-20T22:18:24.898Z,11.00
2023-04-20T22:20:52.471Z,14.70
2023-04-20T22:23:20.046Z,12.90
2023-04-20T22:25:47.876Z,19.80
2023-04-20T22:28:15.619Z,14.60
2023-04-20T22:30:43.133Z,14.40
2023-04-20T22:33:10.816Z,9.50
2023-04-20T22:35:38.637Z,5.90
2023-04-20T22:38:06.328Z,5.50
2023-04-20T22:40:33.836Z,7.90
2023-04-20T22:43:01.285Z,6.20
2023-04-20T22:45:28.907Z,6.50
2023-04-20T22:47:56.484Z,5.80
2023-04-20T22:50:24.267Z,5.90
2023-04-20T22:52:51.926Z,5.10
2023-04-20T22:55:19.524Z,5.70
2023-04-20T22:57:46.999Z,5.00
2023-04-20T23:00:15.988Z,8.70
2023-04-20T23:02:43.579Z,6.20
2023-04-20T23:05:11.791Z,5.50
2023-04-20T23:07:39.501Z,5.50
2023-04-20T23:10:08.188Z,5.50
2023-04-20T23:12:35.621Z,5.40
2023-04-20T23:15:04.615Z,5.40
2023-04-20T23:17:34.773Z,4.90
2023-04-20T23:20:02.444Z,4.60
2023-04-20T23:22:29.905Z,4.40
2023-04-20T23:24:57.339Z,4.50
2023-04-20T23:27:30.050Z,4.60
2023-04-20T23:29:57.614Z,4.70
2023-04-20T23:32:26.085Z,4.60
2023-04-20T23:34:53.640Z,4.20
2023-04-20T23:37:21.080Z,5.00
2023-04-20T23:39:48.519Z,4.70
2023-04-20T23:42:15.975Z,4.40
2023-04-20T23:44:43.527Z,3.90
2023-04-20T23:47:13.600Z,4.60
2023-04-20T23:49:41.340Z,4.50
2023-04-20T23:52:08.882Z,4.30
2023-04-20T23:54:36.461Z,4.40
2023-04-20T23:57:04.032Z,4.40
2023-04-20T23:59:34.364Z,4.40
